sensor_id;sensor_type;location;lat;lon;timestamp;temperature;humidity
38359;DHT22;42072;48.044;14.416;2023-03-11T00:00:41;5.50;99.90
38359;DHT22;42072;48.044;14.416;2023-03-11T00:03:14;5.60;99.90
38359;DHT22;42072;48.044;14.416;2023-03-11T00:05:43;5.70;99.90
38359;DHT22;42072;48.044;14.416;2023-03-11T00:08:14;5.80;99.90
38359;DHT22;42072;48.044;14.416;2023-03-11T00:10:44;5.80;99.90
38359;DHT22;42072;48.044;14.416;2023-03-11T00:13:14;5.90;99.90
38359;DHT22;42072;48.044;14.416;2023-03-11T00:15:44;5.90;99.90
38359;DHT22;42072;48.044;14.416;2023-03-11T00:18:11;5.90;99.90
38359;DHT22;42072;48.044;14.416;2023-03-11T00:20:41;5.80;99.90
38359;DHT22;42072;48.044;14.416;2023-03-11T00:23:12;5.80;99.90
38359;DHT22;42072;48.044;14.416;2023-03-11T00:25:39;5.80;99.90
38359;DHT22;42072;48.044;14.416;2023-03-11T00:28:06;5.90;99.90
38359;DHT22;42072;48.044;14.416;2023-03-11T00:30:37;5.90;99.90
38359;DHT22;42072;48.044;14.416;2023-03-11T00:33:05;5.90;99.90
38359;DHT22;42072;48.044;14.416;2023-03-11T00:35:33;5.80;99.90
38359;DHT22;42072;48.044;14.416;2023-03-11T00:38:06;5.80;99.90
38359;DHT22;42072;48.044;14.416;2023-03-11T00:40:35;5.70;99.90
38359;DHT22;42072;48.044;14.416;2023-03-11T00:43:03;5.70;99.90
38359;DHT22;42072;48.044;14.416;2023-03-11T00:45:30;5.60;99.90
38359;DHT22;42072;48.044;14.416;2023-03-11T00:47:57;5.70;99.90
38359;DHT22;42072;48.044;14.416;2023-03-11T00:50:30;5.70;99.90
38359;DHT22;42072;48.044;14.416;2023-03-11T00:52:58;5.70;99.90
38359;DHT22;42072;48.044;14.416;2023-03-11T00:55:28;5.80;99.90
38359;DHT22;42072;48.044;14.416;2023-03-11T00:57:58;5.80;99.90
38359;DHT22;42072;48.044;14.416;2023-03-11T01:00:27;5.80;99.90
38359;DHT22;42072;48.044;14.416;2023-03-11T01:02:56;5.80;99.90
38359;DHT22;42072;48.044;14.416;2023-03-11T01:05:27;5.90;99.90
38359;DHT22;42072;48.044;14.416;2023-03-11T01:07:54;5.80;99.90
38359;DHT22;42072;48.044;14.416;2023-03-11T01:10:21;5.90;99.90
38359;DHT22;42072;48.044;14.416;2023-03-11T01:12:49;5.90;99.90
38359;DHT22;42072;48.044;14.416;2023-03-11T01:15:39;5.90;99.90
38359;DHT22;42072;48.044;14.416;2023-03-11T01:18:06;5.90;99.90
38359;DHT22;42072;48.044;14.416;2023-03-11T01:20:35;5.80;99.90
38359;DHT22;42072;48.044;14.416;2023-03-11T01:23:03;5.60;99.90
38359;DHT22;42072;48.044;14.416;2023-03-11T01:25:30;5.50;99.90
38359;DHT22;42072;48.044;14.416;2023-03-11T01:27:58;5.20;99.90
38359;DHT22;42072;48.044;14.416;2023-03-11T01:30:27;5.10;99.90
38359;DHT22;42072;48.044;14.416;2023-03-11T01:32:56;4.90;99.90
38359;DHT22;42072;48.044;14.416;2023-03-11T01:35:26;4.80;99.90
38359;DHT22;42072;48.044;14.416;2023-03-11T01:37:55;4.70;99.90
38359;DHT22;42072;48.044;14.416;2023-03-11T01:40:29;4.70;99.90
38359;DHT22;42072;48.044;14.416;2023-03-11T01:42:58;4.60;99.90
38359;DHT22;42072;48.044;14.416;2023-03-11T01:47:57;4.50;99.90
38359;DHT22;42072;48.044;14.416;2023-03-11T01:50:26;4.50;99.90
38359;DHT22;42072;48.044;14.416;2023-03-11T01:52:56;4.50;99.90
38359;DHT22;42072;48.044;14.416;2023-03-11T01:55:24;4.40;99.90
38359;DHT22;42072;48.044;14.416;2023-03-11T01:57:53;4.40;99.90
38359;DHT22;42072;48.044;14.416;2023-03-11T02:00:20;4.40;99.90
38359;DHT22;42072;48.044;14.416;2023-03-11T02:02:53;4.40;99.90
38359;DHT22;42072;48.044;14.416;2023-03-11T02:05:23;4.30;99.90
38359;DHT22;42072;48.044;14.416;2023-03-11T02:07:52;4.30;99.90
38359;DHT22;42072;48.044;14.416;2023-03-11T02:10:21;4.30;99.90
38359;DHT22;42072;48.044;14.416;2023-03-11T02:12:49;4.30;99.90
38359;DHT22;42072;48.044;14.416;2023-03-11T02:15:17;4.30;99.90
38359;DHT22;42072;48.044;14.416;2023-03-11T02:17:44;4.20;99.90
38359;DHT22;42072;48.044;14.416;2023-03-11T02:23:02;4.20;99.90
38359;DHT22;42072;48.044;14.416;2023-03-11T02:25:40;4.10;99.90
38359;DHT22;42072;48.044;14.416;2023-03-11T02:28:11;4.10;99.90
38359;DHT22;42072;48.044;14.416;2023-03-11T02:30:41;4.00;99.90
38359;DHT22;42072;48.044;14.416;2023-03-11T02:33:10;4.00;99.90
38359;DHT22;42072;48.044;14.416;2023-03-11T02:35:37;3.90;99.90
38359;DHT22;42072;48.044;14.416;2023-03-11T02:38:05;3.90;99.90
38359;DHT22;42072;48.044;14.416;2023-03-11T02:40:40;3.80;99.90
38359;DHT22;42072;48.044;14.416;2023-03-11T02:43:13;3.70;99.90
38359;DHT22;42072;48.044;14.416;2023-03-11T02:45:42;3.60;99.90
38359;DHT22;42072;48.044;14.416;2023-03-11T02:48:11;3.60;99.90
38359;DHT22;42072;48.044;14.416;2023-03-11T02:50:39;3.60;99.90
38359;DHT22;42072;48.044;14.416;2023-03-11T02:53:07;3.60;99.90
38359;DHT22;42072;48.044;14.416;2023-03-11T02:55:35;3.50;99.90
38359;DHT22;42072;48.044;14.416;2023-03-11T02:58:02;3.50;99.90
38359;DHT22;42072;48.044;14.416;2023-03-11T03:00:29;3.50;99.90
38359;DHT22;42072;48.044;14.416;2023-03-11T03:02:57;3.60;99.90
38359;DHT22;42072;48.044;14.416;2023-03-11T03:05:24;3.60;99.90
38359;DHT22;42072;48.044;14.416;2023-03-11T03:07:51;3.60;99.90
38359;DHT22;42072;48.044;14.416;2023-03-11T03:10:20;3.60;99.90
38359;DHT22;42072;48.044;14.416;2023-03-11T03:12:48;3.60;99.90
38359;DHT22;42072;48.044;14.416;2023-03-11T03:15:15;3.60;99.90
38359;DHT22;42072;48.044;14.416;2023-03-11T03:17:43;3.60;99.90
38359;DHT22;42072;48.044;14.416;2023-03-11T03:20:10;3.60;99.90
38359;DHT22;42072;48.044;14.416;2023-03-11T03:22:40;3.60;99.90
38359;DHT22;42072;48.044;14.416;2023-03-11T03:25:08;3.60;99.90
38359;DHT22;42072;48.044;14.416;2023-03-11T03:27:36;3.70;99.90
38359;DHT22;42072;48.044;14.416;2023-03-11T03:30:04;3.70;99.90
38359;DHT22;42072;48.044;14.416;2023-03-11T03:32:31;3.70;99.90
38359;DHT22;42072;48.044;14.416;2023-03-11T03:35:00;3.70;99.90
38359;DHT22;42072;48.044;14.416;2023-03-11T03:37:27;3.70;99.90
38359;DHT22;42072;48.044;14.416;2023-03-11T03:39:55;3.80;99.90
38359;DHT22;42072;48.044;14.416;2023-03-11T03:42:22;3.70;99.90
38359;DHT22;42072;48.044;14.416;2023-03-11T03:44:51;3.70;99.90
38359;DHT22;42072;48.044;14.416;2023-03-11T03:47:19;3.70;99.90
38359;DHT22;42072;48.044;14.416;2023-03-11T03:49:46;3.70;99.90
38359;DHT22;42072;48.044;14.416;2023-03-11T03:52:13;3.70;99.90
38359;DHT22;42072;48.044;14.416;2023-03-11T03:54:41;3.70;99.90
38359;DHT22;42072;48.044;14.416;2023-03-11T03:57:08;3.70;99.90
38359;DHT22;42072;48.044;14.416;2023-03-11T03:59:35;3.70;99.90
38359;DHT22;42072;48.044;14.416;2023-03-11T04:02:02;3.60;99.90
38359;DHT22;42072;48.044;14.416;2023-03-11T04:04:30;3.50;99.90
38359;DHT22;42072;48.044;14.416;2023-03-11T04:06:57;3.40;99.90
38359;DHT22;42072;48.044;14.416;2023-03-11T04:09:25;3.20;99.90
38359;DHT22;42072;48.044;14.416;2023-03-11T04:11:52;3.20;99.90
38359;DHT22;42072;48.044;14.416;2023-03-11T04:14:19;3.30;99.90
38359;DHT22;42072;48.044;14.416;2023-03-11T04:16:46;3.40;99.90
38359;DHT22;42072;48.044;14.416;2023-03-11T04:19:13;3.40;99.90
38359;DHT22;42072;48.044;14.416;2023-03-11T04:21:40;3.40;99.90
38359;DHT22;42072;48.044;14.416;2023-03-11T04:24:08;3.30;99.90
38359;DHT22;42072;48.044;14.416;2023-03-11T04:26:35;3.30;99.90
38359;DHT22;42072;48.044;14.416;2023-03-11T04:29:02;3.30;99.90
38359;DHT22;42072;48.044;14.416;2023-03-11T04:31:30;3.30;99.90
38359;DHT22;42072;48.044;14.416;2023-03-11T04:33:57;3.20;99.90
38359;DHT22;42072;48.044;14.416;2023-03-11T04:36:24;3.20;99.90
38359;DHT22;42072;48.044;14.416;2023-03-11T04:38:51;3.20;99.90
38359;DHT22;42072;48.044;14.416;2023-03-11T04:41:18;3.30;99.90
38359;DHT22;42072;48.044;14.416;2023-03-11T04:43:46;3.40;99.90
38359;DHT22;42072;48.044;14.416;2023-03-11T04:46:13;3.40;99.90
38359;DHT22;42072;48.044;14.416;2023-03-11T04:48:40;3.50;99.90
38359;DHT22;42072;48.044;14.416;2023-03-11T04:51:08;3.50;99.90
38359;DHT22;42072;48.044;14.416;2023-03-11T04:53:35;3.50;99.90
38359;DHT22;42072;48.044;14.416;2023-03-11T04:56:02;3.60;99.90
38359;DHT22;42072;48.044;14.416;2023-03-11T04:58:30;3.60;99.90
38359;DHT22;42072;48.044;14.416;2023-03-11T05:00:57;3.50;99.90
38359;DHT22;42072;48.044;14.416;2023-03-11T05:03:24;3.50;99.90
38359;DHT22;42072;48.044;14.416;2023-03-11T05:05:51;3.60;99.90
38359;DHT22;42072;48.044;14.416;2023-03-11T05:08:23;3.60;99.90
38359;DHT22;42072;48.044;14.416;2023-03-11T05:10:51;3.60;99.90
38359;DHT22;42072;48.044;14.416;2023-03-11T05:13:19;3.50;99.90
38359;DHT22;42072;48.044;14.416;2023-03-11T05:15:46;3.50;99.90
38359;DHT22;42072;48.044;14.416;2023-03-11T05:18:14;3.60;99.90
38359;DHT22;42072;48.044;14.416;2023-03-11T05:20:41;3.60;99.90
38359;DHT22;42072;48.044;14.416;2023-03-11T05:23:08;3.60;99.90
38359;DHT22;42072;48.044;14.416;2023-03-11T05:25:36;3.60;99.90
38359;DHT22;42072;48.044;14.416;2023-03-11T05:28:04;3.60;99.90
38359;DHT22;42072;48.044;14.416;2023-03-11T05:30:31;3.60;99.90
38359;DHT22;42072;48.044;14.416;2023-03-11T05:32:58;3.60;99.90
38359;DHT22;42072;48.044;14.416;2023-03-11T05:35:26;3.60;99.90
38359;DHT22;42072;48.044;14.416;2023-03-11T05:37:53;3.60;99.90
38359;DHT22;42072;48.044;14.416;2023-03-11T05:40:20;3.60;99.90
38359;DHT22;42072;48.044;14.416;2023-03-11T05:42:48;3.60;99.90
38359;DHT22;42072;48.044;14.416;2023-03-11T05:45:15;3.60;99.90
38359;DHT22;42072;48.044;14.416;2023-03-11T05:47:42;3.60;99.90
38359;DHT22;42072;48.044;14.416;2023-03-11T05:50:11;3.60;99.90
38359;DHT22;42072;48.044;14.416;2023-03-11T05:52:38;3.60;99.90
38359;DHT22;42072;48.044;14.416;2023-03-11T05:55:06;3.60;99.90
38359;DHT22;42072;48.044;14.416;2023-03-11T05:57:35;3.60;99.90
38359;DHT22;42072;48.044;14.416;2023-03-11T06:00:04;3.60;99.90
38359;DHT22;42072;48.044;14.416;2023-03-11T06:02:33;3.60;99.90
38359;DHT22;42072;48.044;14.416;2023-03-11T06:05:00;3.60;99.90
38359;DHT22;42072;48.044;14.416;2023-03-11T06:07:27;3.60;99.90
38359;DHT22;42072;48.044;14.416;2023-03-11T06:09:54;3.60;99.90
38359;DHT22;42072;48.044;14.416;2023-03-11T06:12:21;3.70;99.90
38359;DHT22;42072;48.044;14.416;2023-03-11T06:14:49;3.70;99.90
38359;DHT22;42072;48.044;14.416;2023-03-11T06:17:16;3.70;99.90
38359;DHT22;42072;48.044;14.416;2023-03-11T06:19:43;3.80;99.90
38359;DHT22;42072;48.044;14.416;2023-03-11T06:22:10;3.80;99.90
38359;DHT22;42072;48.044;14.416;2023-03-11T06:24:37;3.80;99.90
38359;DHT22;42072;48.044;14.416;2023-03-11T06:27:04;3.80;99.90
38359;DHT22;42072;48.044;14.416;2023-03-11T06:29:31;3.80;99.90
38359;DHT22;42072;48.044;14.416;2023-03-11T06:31:58;3.90;99.90
38359;DHT22;42072;48.044;14.416;2023-03-11T06:34:26;3.80;99.90
38359;DHT22;42072;48.044;14.416;2023-03-11T06:36:53;3.90;99.90
38359;DHT22;42072;48.044;14.416;2023-03-11T06:39:20;3.90;99.90
38359;DHT22;42072;48.044;14.416;2023-03-11T06:41:48;4.00;99.90
38359;DHT22;42072;48.044;14.416;2023-03-11T06:44:15;3.90;99.90
38359;DHT22;42072;48.044;14.416;2023-03-11T06:46:42;4.10;99.90
38359;DHT22;42072;48.044;14.416;2023-03-11T06:49:09;4.30;99.90
38359;DHT22;42072;48.044;14.416;2023-03-11T06:51:36;4.30;99.90
38359;DHT22;42072;48.044;14.416;2023-03-11T06:54:03;4.30;99.90
38359;DHT22;42072;48.044;14.416;2023-03-11T06:56:31;4.10;99.90
38359;DHT22;42072;48.044;14.416;2023-03-11T06:58:58;4.10;99.90
38359;DHT22;42072;48.044;14.416;2023-03-11T07:01:25;4.10;99.90
38359;DHT22;42072;48.044;14.416;2023-03-11T07:03:54;4.10;99.90
38359;DHT22;42072;48.044;14.416;2023-03-11T07:06:24;4.20;99.90
38359;DHT22;42072;48.044;14.416;2023-03-11T07:08:52;4.20;99.90
38359;DHT22;42072;48.044;14.416;2023-03-11T07:11:24;4.10;99.90
38359;DHT22;42072;48.044;14.416;2023-03-11T07:13:52;4.10;99.90
38359;DHT22;42072;48.044;14.416;2023-03-11T07:16:26;4.20;99.90
38359;DHT22;42072;48.044;14.416;2023-03-11T07:18:55;4.20;99.90
38359;DHT22;42072;48.044;14.416;2023-03-11T07:21:25;4.20;99.90
38359;DHT22;42072;48.044;14.416;2023-03-11T07:23:54;4.30;99.90
38359;DHT22;42072;48.044;14.416;2023-03-11T07:26:22;4.60;99.90
38359;DHT22;42072;48.044;14.416;2023-03-11T07:28:50;4.70;94.40
38359;DHT22;42072;48.044;14.416;2023-03-11T07:31:20;4.80;89.80
38359;DHT22;42072;48.044;14.416;2023-03-11T07:33:49;5.00;86.60
38359;DHT22;42072;48.044;14.416;2023-03-11T07:36:19;5.20;84.30
38359;DHT22;42072;48.044;14.416;2023-03-11T07:38:48;5.40;69.30
38359;DHT22;42072;48.044;14.416;2023-03-11T07:41:15;5.50;69.90
38359;DHT22;42072;48.044;14.416;2023-03-11T07:43:43;5.60;59.50
38359;DHT22;42072;48.044;14.416;2023-03-11T07:46:15;5.70;56.70
38359;DHT22;42072;48.044;14.416;2023-03-11T07:48:45;5.80;54.40
38359;DHT22;42072;48.044;14.416;2023-03-11T07:51:14;5.80;52.50
38359;DHT22;42072;48.044;14.416;2023-03-11T07:53:43;5.80;52.40
38359;DHT22;42072;48.044;14.416;2023-03-11T07:56:12;5.80;49.40
38359;DHT22;42072;48.044;14.416;2023-03-11T07:58:40;5.80;44.40
38359;DHT22;42072;48.044;14.416;2023-03-11T08:01:17;5.80;45.00
38359;DHT22;42072;48.044;14.416;2023-03-11T08:03:46;5.90;43.10
38359;DHT22;42072;48.044;14.416;2023-03-11T08:06:21;6.10;32.70
38359;DHT22;42072;48.044;14.416;2023-03-11T08:08:49;5.80;25.60
38359;DHT22;42072;48.044;14.416;2023-03-11T08:11:18;5.70;25.80
38359;DHT22;42072;48.044;14.416;2023-03-11T08:13:47;5.70;22.40
38359;DHT22;42072;48.044;14.416;2023-03-11T08:16:16;5.40;21.40
38359;DHT22;42072;48.044;14.416;2023-03-11T08:18:46;5.30;25.40
38359;DHT22;42072;48.044;14.416;2023-03-11T08:21:16;5.30;26.50
38359;DHT22;42072;48.044;14.416;2023-03-11T08:23:44;5.20;24.10
38359;DHT22;42072;48.044;14.416;2023-03-11T08:26:17;5.20;24.30
38359;DHT22;42072;48.044;14.416;2023-03-11T08:28:45;5.40;29.60
38359;DHT22;42072;48.044;14.416;2023-03-11T08:31:13;5.50;29.30
38359;DHT22;42072;48.044;14.416;2023-03-11T08:33:42;5.50;24.20
38359;DHT22;42072;48.044;14.416;2023-03-11T08:36:09;5.60;24.00
38359;DHT22;42072;48.044;14.416;2023-03-11T08:38:37;5.70;24.30
38359;DHT22;42072;48.044;14.416;2023-03-11T08:41:04;5.70;24.00
38359;DHT22;42072;48.044;14.416;2023-03-11T08:43:32;5.40;23.20
38359;DHT22;42072;48.044;14.416;2023-03-11T08:46:00;5.30;22.70
38359;DHT22;42072;48.044;14.416;2023-03-11T08:48:28;5.20;22.00
38359;DHT22;42072;48.044;14.416;2023-03-11T08:50:55;5.50;24.10
38359;DHT22;42072;48.044;14.416;2023-03-11T08:53:22;5.80;21.20
38359;DHT22;42072;48.044;14.416;2023-03-11T08:55:51;6.00;23.10
38359;DHT22;42072;48.044;14.416;2023-03-11T08:58:19;6.30;19.30
38359;DHT22;42072;48.044;14.416;2023-03-11T09:00:46;6.20;17.70
38359;DHT22;42072;48.044;14.416;2023-03-11T09:03:13;6.00;18.90
38359;DHT22;42072;48.044;14.416;2023-03-11T09:05:40;6.20;19.60
38359;DHT22;42072;48.044;14.416;2023-03-11T09:08:08;6.00;14.10
38359;DHT22;42072;48.044;14.416;2023-03-11T09:10:35;5.80;14.30
38359;DHT22;42072;48.044;14.416;2023-03-11T09:13:02;5.60;15.70
38359;DHT22;42072;48.044;14.416;2023-03-11T09:15:29;5.40;12.30
38359;DHT22;42072;48.044;14.416;2023-03-11T09:17:57;5.20;13.20
38359;DHT22;42072;48.044;14.416;2023-03-11T09:20:25;5.10;17.70
38359;DHT22;42072;48.044;14.416;2023-03-11T09:22:52;4.90;18.70
38359;DHT22;42072;48.044;14.416;2023-03-11T09:25:20;4.70;19.80
38359;DHT22;42072;48.044;14.416;2023-03-11T09:27:47;4.60;26.10
38359;DHT22;42072;48.044;14.416;2023-03-11T09:30:14;4.70;23.10
38359;DHT22;42072;48.044;14.416;2023-03-11T09:32:41;4.80;22.40
38359;DHT22;42072;48.044;14.416;2023-03-11T09:35:08;4.80;22.10
38359;DHT22;42072;48.044;14.416;2023-03-11T09:37:36;4.80;24.30
38359;DHT22;42072;48.044;14.416;2023-03-11T09:40:03;5.00;22.50
38359;DHT22;42072;48.044;14.416;2023-03-11T09:42:49;5.20;22.10
38359;DHT22;42072;48.044;14.416;2023-03-11T09:45:32;5.30;22.60
38359;DHT22;42072;48.044;14.416;2023-03-11T09:48:39;5.30;20.20
38359;DHT22;42072;48.044;14.416;2023-03-11T09:53:41;5.80;20.20
38359;DHT22;42072;48.044;14.416;2023-03-11T09:56:10;6.50;21.20
38359;DHT22;42072;48.044;14.416;2023-03-11T10:01:27;6.90;13.70
38359;DHT22;42072;48.044;14.416;2023-03-11T10:03:59;7.00;13.00
38359;DHT22;42072;48.044;14.416;2023-03-11T10:06:30;7.00;14.10
38359;DHT22;42072;48.044;14.416;2023-03-11T10:25:52;5.70;39.70
38359;DHT22;42072;48.044;14.416;2023-03-11T10:28:25;5.80;47.70
38359;DHT22;42072;48.044;14.416;2023-03-11T10:31:02;5.90;49.60
38359;DHT22;42072;48.044;14.416;2023-03-11T10:36:33;6.70;41.60
38359;DHT22;42072;48.044;14.416;2023-03-11T10:39:03;6.90;32.40
38359;DHT22;42072;48.044;14.416;2023-03-11T10:41:50;6.90;30.40
38359;DHT22;42072;48.044;14.416;2023-03-11T10:44:29;6.90;27.50
38359;DHT22;42072;48.044;14.416;2023-03-11T10:46:58;7.30;26.10
38359;DHT22;42072;48.044;14.416;2023-03-11T10:49:26;6.70;23.80
38359;DHT22;42072;48.044;14.416;2023-03-11T10:51:54;6.80;26.50
38359;DHT22;42072;48.044;14.416;2023-03-11T10:54:35;6.40;23.50
38359;DHT22;42072;48.044;14.416;2023-03-11T10:57:25;6.90;27.40
38359;DHT22;42072;48.044;14.416;2023-03-11T10:59:58;7.10;19.30
38359;DHT22;42072;48.044;14.416;2023-03-11T11:02:32;7.40;15.70
38359;DHT22;42072;48.044;14.416;2023-03-11T11:08:01;6.70;7.50
38359;DHT22;42072;48.044;14.416;2023-03-11T11:10:30;6.70;7.40
38359;DHT22;42072;48.044;14.416;2023-03-11T11:15:32;7.00;10.40
38359;DHT22;42072;48.044;14.416;2023-03-11T11:18:06;7.30;11.30
38359;DHT22;42072;48.044;14.416;2023-03-11T11:21:08;7.70;9.60
38359;DHT22;42072;48.044;14.416;2023-03-11T11:23:47;8.10;2.70
38359;DHT22;42072;48.044;14.416;2023-03-11T11:26:22;8.80;5.40
38359;DHT22;42072;48.044;14.416;2023-03-11T11:29:06;9.40;1.00
38359;DHT22;42072;48.044;14.416;2023-03-11T11:31:36;9.70;1.00
38359;DHT22;42072;48.044;14.416;2023-03-11T11:34:27;9.60;1.00
38359;DHT22;42072;48.044;14.416;2023-03-11T11:37:00;9.50;1.00
38359;DHT22;42072;48.044;14.416;2023-03-11T11:39:31;9.10;1.00
38359;DHT22;42072;48.044;14.416;2023-03-11T11:42:00;8.90;1.00
38359;DHT22;42072;48.044;14.416;2023-03-11T11:44:32;8.50;1.00
38359;DHT22;42072;48.044;14.416;2023-03-11T11:50:04;8.00;1.00
38359;DHT22;42072;48.044;14.416;2023-03-11T11:52:40;7.80;1.00
38359;DHT22;42072;48.044;14.416;2023-03-11T11:55:23;7.70;1.00
38359;DHT22;42072;48.044;14.416;2023-03-11T11:57:51;8.20;1.00
38359;DHT22;42072;48.044;14.416;2023-03-11T12:00:21;8.50;1.00
38359;DHT22;42072;48.044;14.416;2023-03-11T12:06:04;8.30;1.00
38359;DHT22;42072;48.044;14.416;2023-03-11T12:11:47;8.00;1.00
38359;DHT22;42072;48.044;14.416;2023-03-11T12:14:20;8.00;1.00
38359;DHT22;42072;48.044;14.416;2023-03-11T12:17:01;8.20;1.00
38359;DHT22;42072;48.044;14.416;2023-03-11T12:24:43;8.40;1.00
38359;DHT22;42072;48.044;14.416;2023-03-11T12:27:26;8.40;1.00
38359;DHT22;42072;48.044;14.416;2023-03-11T12:30:15;7.90;1.00
38359;DHT22;42072;48.044;14.416;2023-03-11T12:32:50;7.30;1.00
38359;DHT22;42072;48.044;14.416;2023-03-11T12:35:24;7.50;2.60
38359;DHT22;42072;48.044;14.416;2023-03-11T12:41:12;7.80;1.00
38359;DHT22;42072;48.044;14.416;2023-03-11T12:46:18;7.30;1.20
38359;DHT22;42072;48.044;14.416;2023-03-11T12:48:47;7.00;1.00
38359;DHT22;42072;48.044;14.416;2023-03-11T12:53:53;7.40;1.00
38359;DHT22;42072;48.044;14.416;2023-03-11T13:07:45;6.10;32.80
38359;DHT22;42072;48.044;14.416;2023-03-11T13:10:43;6.00;35.70
38359;DHT22;42072;48.044;14.416;2023-03-11T13:13:40;6.20;40.70
38359;DHT22;42072;48.044;14.416;2023-03-11T13:18:46;6.10;40.20
38359;DHT22;42072;48.044;14.416;2023-03-11T13:26:49;6.10;44.20
38359;DHT22;42072;48.044;14.416;2023-03-11T13:39:07;5.80;48.00
38359;DHT22;42072;48.044;14.416;2023-03-11T13:41:42;5.90;47.00
38359;DHT22;42072;48.044;14.416;2023-03-11T13:44:25;5.80;50.00
38359;DHT22;42072;48.044;14.416;2023-03-11T13:47:02;5.70;52.70
38359;DHT22;42072;48.044;14.416;2023-03-11T13:49:41;5.70;50.60
38359;DHT22;42072;48.044;14.416;2023-03-11T13:52:59;5.80;50.00
38359;DHT22;42072;48.044;14.416;2023-03-11T13:55:14;6.00;51.90
38359;DHT22;42072;48.044;14.416;2023-03-11T13:57:51;6.00;53.10
38359;DHT22;42072;48.044;14.416;2023-03-11T14:00:22;5.80;60.30
38359;DHT22;42072;48.044;14.416;2023-03-11T14:03:00;5.60;57.10
38359;DHT22;42072;48.044;14.416;2023-03-11T14:05:33;5.40;62.50
38359;DHT22;42072;48.044;14.416;2023-03-11T14:08:29;5.10;67.20
38359;DHT22;42072;48.044;14.416;2023-03-11T14:11:15;5.00;75.60
38359;DHT22;42072;48.044;14.416;2023-03-11T14:13:45;4.70;73.60
38359;DHT22;42072;48.044;14.416;2023-03-11T14:21:18;4.70;90.20
38359;DHT22;42072;48.044;14.416;2023-03-11T14:23:51;4.70;87.80
38359;DHT22;42072;48.044;14.416;2023-03-11T14:26:33;4.80;85.10
38359;DHT22;42072;48.044;14.416;2023-03-11T14:29:07;5.00;77.90
38359;DHT22;42072;48.044;14.416;2023-03-11T14:31:39;5.00;75.90
38359;DHT22;42072;48.044;14.416;2023-03-11T14:36:48;5.30;66.70
38359;DHT22;42072;48.044;14.416;2023-03-11T14:39:37;5.40;63.80
38359;DHT22;42072;48.044;14.416;2023-03-11T14:47:45;5.60;53.90
38359;DHT22;42072;48.044;14.416;2023-03-11T14:50:17;5.60;57.90
38359;DHT22;42072;48.044;14.416;2023-03-11T14:52:58;5.70;53.70
38359;DHT22;42072;48.044;14.416;2023-03-11T14:59:13;5.50;49.30
38359;DHT22;42072;48.044;14.416;2023-03-11T15:01:43;5.30;56.80
38359;DHT22;42072;48.044;14.416;2023-03-11T15:04:23;5.40;60.10
38359;DHT22;42072;48.044;14.416;2023-03-11T15:06:54;5.50;58.20
38359;DHT22;42072;48.044;14.416;2023-03-11T15:09:23;5.50;56.50
38359;DHT22;42072;48.044;14.416;2023-03-11T15:11:54;5.30;63.70
38359;DHT22;42072;48.044;14.416;2023-03-11T15:14:32;5.40;71.40
38359;DHT22;42072;48.044;14.416;2023-03-11T15:17:22;5.40;69.10
38359;DHT22;42072;48.044;14.416;2023-03-11T15:20:45;5.10;73.50
38359;DHT22;42072;48.044;14.416;2023-03-11T15:23:20;5.00;77.50
38359;DHT22;42072;48.044;14.416;2023-03-11T15:25:49;4.90;81.50
38359;DHT22;42072;48.044;14.416;2023-03-11T15:28:20;4.90;88.50
38359;DHT22;42072;48.044;14.416;2023-03-11T15:31:12;4.80;92.20
38359;DHT22;42072;48.044;14.416;2023-03-11T15:33:39;4.80;93.90
38359;DHT22;42072;48.044;14.416;2023-03-11T15:36:27;4.80;94.90
38359;DHT22;42072;48.044;14.416;2023-03-11T15:44:42;4.70;94.40
38359;DHT22;42072;48.044;14.416;2023-03-11T15:47:17;4.60;94.70
38359;DHT22;42072;48.044;14.416;2023-03-11T15:49:45;4.50;98.20
38359;DHT22;42072;48.044;14.416;2023-03-11T15:52:13;4.40;99.90
38359;DHT22;42072;48.044;14.416;2023-03-11T15:54:40;4.30;99.90
38359;DHT22;42072;48.044;14.416;2023-03-11T15:57:23;4.30;99.90
38359;DHT22;42072;48.044;14.416;2023-03-11T15:59:54;4.30;99.90
38359;DHT22;42072;48.044;14.416;2023-03-11T16:02:28;4.30;99.90
38359;DHT22;42072;48.044;14.416;2023-03-11T16:04:57;4.30;99.90
38359;DHT22;42072;48.044;14.416;2023-03-11T16:07:25;4.20;99.90
38359;DHT22;42072;48.044;14.416;2023-03-11T16:10:09;4.20;99.90
38359;DHT22;42072;48.044;14.416;2023-03-11T16:12:37;4.10;99.90
38359;DHT22;42072;48.044;14.416;2023-03-11T16:15:05;4.10;99.90
38359;DHT22;42072;48.044;14.416;2023-03-11T16:17:33;4.10;99.90
38359;DHT22;42072;48.044;14.416;2023-03-11T16:20:17;4.10;99.90
38359;DHT22;42072;48.044;14.416;2023-03-11T16:22:48;4.10;99.90
38359;DHT22;42072;48.044;14.416;2023-03-11T16:25:35;4.00;99.90
38359;DHT22;42072;48.044;14.416;2023-03-11T16:28:05;4.00;99.90
38359;DHT22;42072;48.044;14.416;2023-03-11T16:30:34;4.00;99.90
38359;DHT22;42072;48.044;14.416;2023-03-11T16:33:01;4.00;99.90
38359;DHT22;42072;48.044;14.416;2023-03-11T16:35:33;3.90;99.90
38359;DHT22;42072;48.044;14.416;2023-03-11T16:38:01;3.90;99.90
38359;DHT22;42072;48.044;14.416;2023-03-11T16:40:29;3.80;99.90
38359;DHT22;42072;48.044;14.416;2023-03-11T16:43:04;3.80;99.90
38359;DHT22;42072;48.044;14.416;2023-03-11T16:45:33;3.80;99.90
38359;DHT22;42072;48.044;14.416;2023-03-11T16:48:01;3.70;99.90
38359;DHT22;42072;48.044;14.416;2023-03-11T16:50:29;3.70;99.90
38359;DHT22;42072;48.044;14.416;2023-03-11T16:52:57;3.70;99.90
38359;DHT22;42072;48.044;14.416;2023-03-11T16:55:26;3.70;99.90
38359;DHT22;42072;48.044;14.416;2023-03-11T16:57:54;3.70;99.90
38359;DHT22;42072;48.044;14.416;2023-03-11T17:00:24;3.60;99.90
38359;DHT22;42072;48.044;14.416;2023-03-11T17:02:51;3.60;99.90
38359;DHT22;42072;48.044;14.416;2023-03-11T17:05:19;3.60;99.90
38359;DHT22;42072;48.044;14.416;2023-03-11T17:07:52;3.60;99.90
38359;DHT22;42072;48.044;14.416;2023-03-11T17:10:20;3.60;99.90
38359;DHT22;42072;48.044;14.416;2023-03-11T17:12:49;3.60;99.90
38359;DHT22;42072;48.044;14.416;2023-03-11T17:15:17;3.50;99.90
38359;DHT22;42072;48.044;14.416;2023-03-11T17:17:45;3.50;99.90
38359;DHT22;42072;48.044;14.416;2023-03-11T17:20:13;3.50;99.90
38359;DHT22;42072;48.044;14.416;2023-03-11T17:22:41;3.50;99.90
38359;DHT22;42072;48.044;14.416;2023-03-11T17:25:09;3.50;99.90
38359;DHT22;42072;48.044;14.416;2023-03-11T17:27:37;3.50;99.90
38359;DHT22;42072;48.044;14.416;2023-03-11T17:30:07;3.50;99.90
38359;DHT22;42072;48.044;14.416;2023-03-11T17:32:35;3.50;99.90
38359;DHT22;42072;48.044;14.416;2023-03-11T17:35:04;3.50;99.90
38359;DHT22;42072;48.044;14.416;2023-03-11T17:37:32;3.50;99.90
38359;DHT22;42072;48.044;14.416;2023-03-11T17:40:02;3.50;99.90
38359;DHT22;42072;48.044;14.416;2023-03-11T17:42:32;3.50;99.90
38359;DHT22;42072;48.044;14.416;2023-03-11T17:45:00;3.40;99.90